^^
Marion, Virginia Banner
 

Adwolf, VA. Station Historical Data
[ Providing Data Since 6/07/2007 ]
Station Historical Data
Daily Summary for July 18, 2017 Units:  Both    English   Metric
« Previous Day
Next Day »
Daily Weekly Monthly Yearly Custom
  High: Low: Average:
Temperature: 91.0 °F /  32.8 °C 62.0 °F /  16.7 °C 75.9 °F /  24.4 °C
Dew Point: 69.4 °F /  20.8 °C 59.9 °F /  15.5 °C 64.7 °F /  18.2 °C
Humidity: 94% 39% 72%
Wind Speed: 8.1mph /  13km/h - 2.9mph /  4.7km/h
Wind Gust: 8.1mph /  13km/h - -
Wind- - SSE
Pressure: 30.23 in /  1023.6 hPa 30.15 in /  1020.9 hPa -
Precipitation: 0.00 in /  0 mm    
Historical Graphs
 
 
Tabular Data for July 18, 2017
Time Temperature Dew Point Pressure Wind Wind Speed Wind Gust Humidity Rainfall Rate (Hourly) solar Conditions
00:02 67.6 °F /  19.8 °C 63.6 °F /  17.6 °C 30.16in /  1021.2hPa ESE 1.2mph /  1.9km/h   87% 0.00in /  0mm WeatherDisplay:10.37 W/m2 CLR
00:07 67.3 °F /  19.6 °C 63.6 °F /  17.6 °C 30.16in /  1021.2hPa Calm     88% 0.00in /  0mm WeatherDisplay:10.37 W/m2 CLR
00:12 67.2 °F /  19.6 °C 63.8 °F /  17.7 °C 30.16in /  1021.2hPa Calm     89% 0.00in /  0mm WeatherDisplay:10.37 W/m2 CLR
00:17 67.1 °F /  19.5 °C 63.7 °F /  17.6 °C 30.16in /  1021.2hPa ESE 1.0mph /  1.6km/h 1.0mph /  1.6km/h 89% 0.00in /  0mm WeatherDisplay:10.37 W/m2 CLR
00:22 67.0 °F /  19.4 °C 63.6 °F /  17.6 °C 30.16in /  1021.2hPa ESE 1.2mph /  1.9km/h 1.2mph /  1.9km/h 89% 0.00in /  0mm WeatherDisplay:10.37 W/m2 CLR
00:27 66.9 °F /  19.4 °C 63.8 °F /  17.7 °C 30.16in /  1021.2hPa ESE 1.0mph /  1.6km/h   90% 0.00in /  0mm WeatherDisplay:10.37 W/m2 CLR
00:32 66.9 °F /  19.4 °C 63.8 °F /  17.7 °C 30.16in /  1021.2hPa ESE 2.3mph /  3.7km/h 2.3mph /  3.7km/h 90% 0.00in /  0mm WeatherDisplay:10.37 W/m2 CLR
00:37 66.9 °F /  19.4 °C 63.8 °F /  17.7 °C 30.16in /  1021.2hPa ESE 2.3mph /  3.7km/h 2.3mph /  3.7km/h 90% 0.00in /  0mm WeatherDisplay:10.37 W/m2 CLR
00:42 66.8 °F /  19.3 °C 63.7 °F /  17.6 °C 30.16in /  1021.2hPa ESE 1.0mph /  1.6km/h 1.0mph /  1.6km/h 90% 0.00in /  0mm WeatherDisplay:10.37 W/m2 CLR
00:47 66.7 °F /  19.3 °C 63.6 °F /  17.6 °C 30.16in /  1021.2hPa ESE 1.2mph /  1.9km/h 1.2mph /  1.9km/h 90% 0.00in /  0mm WeatherDisplay:10.37 W/m2 CLR
00:52 66.6 °F /  19.2 °C 63.5 °F /  17.5 °C 30.17in /  1021.6hPa Calm     90% 0.00in /  0mm WeatherDisplay:10.37 W/m2 CLR
00:57 66.5 °F /  19.2 °C 63.4 °F /  17.4 °C 30.17in /  1021.6hPa ESE 2.3mph /  3.7km/h 2.3mph /  3.7km/h 90% 0.00in /  0mm WeatherDisplay:10.37 W/m2 CLR
01:02 66.4 °F /  19.1 °C 63.3 °F /  17.4 °C 30.17in /  1021.6hPa ESE 1.2mph /  1.9km/h 1.2mph /  1.9km/h 90% 0.00in /  0mm WeatherDisplay:10.37 W/m2 CLR
01:07 66.3 °F /  19.1 °C 63.2 °F /  17.3 °C 30.17in /  1021.6hPa ESE 1.2mph /  1.9km/h 1.2mph /  1.9km/h 90% 0.00in /  0mm WeatherDisplay:10.37 W/m2 CLR
01:12 66.2 °F /  19 °C 63.1 °F /  17.3 °C 30.16in /  1021.2hPa ESE 1.2mph /  1.9km/h 1.2mph /  1.9km/h 90% 0.00in /  0mm WeatherDisplay:10.37 W/m2 CLR
01:17 66.0 °F /  18.9 °C 62.9 °F /  17.2 °C 30.16in /  1021.2hPa Calm     90% 0.00in /  0mm WeatherDisplay:10.37 W/m2 CLR
01:18 66.0 °F /  18.9 °C 62.9 °F /  17.2 °C 30.16in /  1021.2hPa Calm     90% 0.00in /  0mm WeatherDisplay:10.37 W/m2 CLR
01:23 66.0 °F /  18.9 °C 63.3 °F /  17.4 °C 30.16in /  1021.2hPa ESE 2.3mph /  3.7km/h 2.3mph /  3.7km/h 91% 0.00in /  0mm WeatherDisplay:10.37 W/m2 CLR
01:24 66.0 °F /  18.9 °C 63.3 °F /  17.4 °C 30.16in /  1021.2hPa ESE 2.3mph /  3.7km/h 2.3mph /  3.7km/h 91% 0.00in /  0mm WeatherDisplay:10.37 W/m2 CLR
01:29 65.9 °F /  18.8 °C 63.2 °F /  17.3 °C 30.16in /  1021.2hPa ESE 1.2mph /  1.9km/h   91% 0.00in /  0mm WeatherDisplay:10.37 W/m2 CLR
01:34 65.8 °F /  18.8 °C 63.1 °F /  17.3 °C 30.17in /  1021.6hPa ESE 1.2mph /  1.9km/h 1.2mph /  1.9km/h 91% 0.00in /  0mm WeatherDisplay:10.37 W/m2 CLR
01:39 65.7 °F /  18.7 °C 63.0 °F /  17.2 °C 30.17in /  1021.6hPa ESE 2.3mph /  3.7km/h 2.3mph /  3.7km/h 91% 0.00in /  0mm WeatherDisplay:10.37 W/m2 CLR
01:44 65.7 °F /  18.7 °C 63.0 °F /  17.2 °C 30.17in /  1021.6hPa ESE 1.2mph /  1.9km/h 1.2mph /  1.9km/h 91% 0.00in /  0mm WeatherDisplay:10.37 W/m2 CLR
01:49 65.6 °F /  18.7 °C 62.9 °F /  17.2 °C 30.16in /  1021.2hPa ESE 1.2mph /  1.9km/h 1.2mph /  1.9km/h 91% 0.00in /  0mm WeatherDisplay:10.37 W/m2 CLR
01:54 65.5 °F /  18.6 °C 62.8 °F /  17.1 °C 30.16in /  1021.2hPa Calm     91% 0.00in /  0mm WeatherDisplay:10.37 W/m2 CLR
01:59 65.4 °F /  18.6 °C 62.7 °F /  17.1 °C 30.16in /  1021.2hPa Calm     91% 0.00in /  0mm WeatherDisplay:10.37 W/m2 CLR
02:04 65.2 °F /  18.4 °C 62.5 °F /  16.9 °C 30.16in /  1021.2hPa ESE 2.3mph /  3.7km/h 2.3mph /  3.7km/h 91% 0.00in /  0mm WeatherDisplay:10.37 W/m2 CLR
02:09 65.0 °F /  18.3 °C 62.6 °F /  17 °C 30.16in /  1021.2hPa ESE 2.3mph /  3.7km/h 2.3mph /  3.7km/h 92% 0.00in /  0mm WeatherDisplay:10.37 W/m2 CLR
02:14 64.9 °F /  18.3 °C 62.5 °F /  16.9 °C 30.16in /  1021.2hPa Calm     92% 0.00in /  0mm WeatherDisplay:10.37 W/m2 CLR
02:19 64.8 °F /  18.2 °C 62.4 °F /  16.9 °C 30.15in /  1020.9hPa ESE 1.2mph /  1.9km/h 1.2mph /  1.9km/h 92% 0.00in /  0mm WeatherDisplay:10.37 W/m2 CLR
02:24 64.8 °F /  18.2 °C 62.4 °F /  16.9 °C 30.16in /  1021.2hPa Calm     92% 0.00in /  0mm WeatherDisplay:10.37 W/m2 CLR
02:29 64.8 °F /  18.2 °C 62.4 °F /  16.9 °C 30.16in /  1021.2hPa Calm     92% 0.00in /  0mm WeatherDisplay:10.37 W/m2 CLR
02:34 64.9 °F /  18.3 °C 62.5 °F /  16.9 °C 30.16in /  1021.2hPa ESE 2.3mph /  3.7km/h 2.3mph /  3.7km/h 92% 0.00in /  0mm WeatherDisplay:10.37 W/m2 CLR
02:39 65.0 °F /  18.3 °C 62.6 °F /  17 °C 30.16in /  1021.2hPa ESE 2.3mph /  3.7km/h 2.3mph /  3.7km/h 92% 0.00in /  0mm WeatherDisplay:10.37 W/m2 CLR
02:44 65.0 °F /  18.3 °C 62.6 °F /  17 °C 30.16in /  1021.2hPa ESE 1.2mph /  1.9km/h   92% 0.00in /  0mm WeatherDisplay:10.37 W/m2 CLR
02:49 65.1 °F /  18.4 °C 62.7 °F /  17.1 °C 30.16in /  1021.2hPa ESE 1.2mph /  1.9km/h 1.2mph /  1.9km/h 92% 0.00in /  0mm WeatherDisplay:10.37 W/m2 CLR
02:54 65.0 °F /  18.3 °C 62.6 °F /  17 °C 30.16in /  1021.2hPa ESE 1.2mph /  1.9km/h 1.2mph /  1.9km/h 92% 0.00in /  0mm WeatherDisplay:10.37 W/m2 CLR
02:59 65.0 °F /  18.3 °C 62.6 °F /  17 °C 30.16in /  1021.2hPa ESE 1.2mph /  1.9km/h 1.2mph /  1.9km/h 92% 0.00in /  0mm WeatherDisplay:10.37 W/m2 CLR
03:04 64.9 °F /  18.3 °C 62.5 °F /  16.9 °C 30.16in /  1021.2hPa Calm     92% 0.00in /  0mm WeatherDisplay:10.37 W/m2 CLR
03:09 64.8 °F /  18.2 °C 62.4 °F /  16.9 °C 30.16in /  1021.2hPa ESE 2.3mph /  3.7km/h 2.3mph /  3.7km/h 92% 0.00in /  0mm WeatherDisplay:10.37 W/m2 CLR
03:14 64.8 °F /  18.2 °C 62.4 °F /  16.9 °C 30.16in /  1021.2hPa ESE 1.2mph /  1.9km/h   92% 0.00in /  0mm WeatherDisplay:10.37 W/m2 CLR
03:19 64.7 °F /  18.2 °C 62.3 °F /  16.8 °C 30.16in /  1021.2hPa ESE 1.2mph /  1.9km/h 1.2mph /  1.9km/h 92% 0.00in /  0mm WeatherDisplay:10.37 W/m2 CLR
03:24 64.5 °F /  18.1 °C 62.1 °F /  16.7 °C 30.16in /  1021.2hPa Calm     92% 0.00in /  0mm WeatherDisplay:10.37 W/m2 CLR
03:29 64.4 °F /  18 °C 62.0 °F /  16.7 °C 30.16in /  1021.2hPa Calm     92% 0.00in /  0mm WeatherDisplay:10.37 W/m2 CLR
03:34 64.3 °F /  17.9 °C 61.9 °F /  16.6 °C 30.16in /  1021.2hPa Calm     92% 0.00in /  0mm WeatherDisplay:10.37 W/m2 CLR
03:39 64.1 °F /  17.8 °C 61.7 °F /  16.5 °C 30.16in /  1021.2hPa Calm     92% 0.00in /  0mm WeatherDisplay:10.37 W/m2 CLR
03:45 64.1 °F /  17.8 °C 61.7 °F /  16.5 °C 30.16in /  1021.2hPa East 2.3mph /  3.7km/h 2.3mph /  3.7km/h 92% 0.00in /  0mm WeatherDisplay:10.37 W/m2 CLR
03:49 64.1 °F /  17.8 °C 61.7 °F /  16.5 °C 30.16in /  1021.2hPa East 2.3mph /  3.7km/h 2.3mph /  3.7km/h 92% 0.00in /  0mm WeatherDisplay:10.37 W/m2 CLR
03:54 64.2 °F /  17.9 °C 62.1 °F /  16.7 °C 30.16in /  1021.2hPa East 1.2mph /  1.9km/h   93% 0.00in /  0mm WeatherDisplay:10.37 W/m2 CLR
04:00 64.1 °F /  17.8 °C 62.0 °F /  16.7 °C 30.16in /  1021.2hPa East 1.2mph /  1.9km/h 1.2mph /  1.9km/h 93% 0.00in /  0mm WeatherDisplay:10.37 W/m2 CLR
04:05 64.0 °F /  17.8 °C 61.6 °F /  16.4 °C 30.17in /  1021.6hPa East 1.2mph /  1.9km/h   92% 0.00in /  0mm WeatherDisplay:10.37 W/m2 CLR
04:10 63.9 °F /  17.7 °C 61.5 °F /  16.4 °C 30.17in /  1021.6hPa East 1.2mph /  1.9km/h   92% 0.00in /  0mm WeatherDisplay:10.37 W/m2 CLR
04:15 63.8 °F /  17.7 °C 61.4 °F /  16.3 °C 30.17in /  1021.6hPa Calm     92% 0.00in /  0mm WeatherDisplay:10.37 W/m2 CLR
04:20 63.7 °F /  17.6 °C 61.3 °F /  16.3 °C 30.17in /  1021.6hPa East 1.2mph /  1.9km/h   92% 0.00in /  0mm WeatherDisplay:10.37 W/m2 CLR
04:25 63.6 °F /  17.6 °C 61.2 °F /  16.2 °C 30.17in /  1021.6hPa Calm     92% 0.00in /  0mm WeatherDisplay:10.37 W/m2 CLR
04:30 63.5 °F /  17.5 °C 61.1 °F /  16.2 °C 30.17in /  1021.6hPa East 1.2mph /  1.9km/h 1.2mph /  1.9km/h 92% 0.00in /  0mm WeatherDisplay:10.37 W/m2 CLR
04:35 63.5 °F /  17.5 °C 61.4 °F /  16.3 °C 30.17in /  1021.6hPa East 2.3mph /  3.7km/h 2.3mph /  3.7km/h 93% 0.00in /  0mm WeatherDisplay:10.37 W/m2 CLR
04:40 63.5 °F /  17.5 °C 61.4 °F /  16.3 °C 30.17in /  1021.6hPa East 2.3mph /  3.7km/h 2.3mph /  3.7km/h 93% 0.00in /  0mm WeatherDisplay:10.37 W/m2 CLR
04:45 63.5 °F /  17.5 °C 61.4 °F /  16.3 °C 30.17in /  1021.6hPa East 2.3mph /  3.7km/h 2.3mph /  3.7km/h 93% 0.00in /  0mm WeatherDisplay:10.37 W/m2 CLR
04:50 63.6 °F /  17.6 °C 61.5 °F /  16.4 °C 30.17in /  1021.6hPa East 1.2mph /  1.9km/h 1.2mph /  1.9km/h 93% 0.00in /  0mm WeatherDisplay:10.37 W/m2 CLR
04:55 63.6 °F /  17.6 °C 61.5 °F /  16.4 °C 30.17in /  1021.6hPa East 2.3mph /  3.7km/h 2.3mph /  3.7km/h 93% 0.00in /  0mm WeatherDisplay:10.37 W/m2 CLR
05:00 63.6 °F /  17.6 °C 61.5 °F /  16.4 °C 30.17in /  1021.6hPa East 1.2mph /  1.9km/h 1.2mph /  1.9km/h 93% 0.00in /  0mm WeatherDisplay:10.37 W/m2 CLR
05:05 63.6 °F /  17.6 °C 61.5 °F /  16.4 °C 30.17in /  1021.6hPa East 1.2mph /  1.9km/h   93% 0.00in /  0mm WeatherDisplay:10.37 W/m2 CLR
05:10 63.5 °F /  17.5 °C 61.4 °F /  16.3 °C 30.17in /  1021.6hPa Calm     93% 0.00in /  0mm WeatherDisplay:10.37 W/m2 CLR
05:15 63.4 °F /  17.4 °C 61.3 °F /  16.3 °C 30.17in /  1021.6hPa Calm     93% 0.00in /  0mm WeatherDisplay:10.37 W/m2 CLR
05:20 63.3 °F /  17.4 °C 61.2 °F /  16.2 °C 30.17in /  1021.6hPa Calm     93% 0.00in /  0mm WeatherDisplay:10.37 W/m2 CLR
05:25 63.1 °F /  17.3 °C 60.7 °F /  15.9 °C 30.18in /  1021.9hPa Calm     92% 0.00in /  0mm WeatherDisplay:10.37 W/m2 CLR
05:30 62.9 °F /  17.2 °C 60.5 °F /  15.8 °C 30.18in /  1021.9hPa Calm     92% 0.00in /  0mm WeatherDisplay:10.37 W/m2 CLR
05:35 62.8 °F /  17.1 °C 60.7 °F /  15.9 °C 30.18in /  1021.9hPa Calm     93% 0.00in /  0mm WeatherDisplay:10.37 W/m2 CLR
05:40 62.6 °F /  17 °C 60.5 °F /  15.8 °C 30.18in /  1021.9hPa Calm     93% 0.00in /  0mm WeatherDisplay:10.37 W/m2 CLR
05:45 62.5 °F /  16.9 °C 60.1 °F /  15.6 °C 30.18in /  1021.9hPa Calm     92% 0.00in /  0mm WeatherDisplay:10.37 W/m2 CLR
05:50 62.3 °F /  16.8 °C 60.2 °F /  15.7 °C 30.19in /  1022.2hPa Calm     93% 0.00in /  0mm WeatherDisplay:10.37 W/m2 CLR
05:55 62.3 °F /  16.8 °C 60.2 °F /  15.7 °C 30.19in /  1022.2hPa Calm     93% 0.00in /  0mm WeatherDisplay:10.37 W/m2 CLR
06:00 62.2 °F /  16.8 °C 60.1 °F /  15.6 °C 30.19in /  1022.2hPa Calm     93% 0.00in /  0mm WeatherDisplay:10.37 W/m2 CLR
06:05 62.2 °F /  16.8 °C 60.1 °F /  15.6 °C 30.19in /  1022.2hPa East 3.0mph /  4.8km/h 3.0mph /  4.8km/h 93% 0.00in /  0mm WeatherDisplay:10.37 W/m2 CLR
06:10 62.4 °F /  16.9 °C 60.3 °F /  15.7 °C 30.19in /  1022.2hPa East 2.3mph /  3.7km/h 2.3mph /  3.7km/h 93% 0.00in /  0mm WeatherDisplay:10.37 W/m2 CLR
06:15 62.4 °F /  16.9 °C 60.3 °F /  15.7 °C 30.20in /  1022.6hPa East 1.2mph /  1.9km/h 1.2mph /  1.9km/h 93% 0.00in /  0mm WeatherDisplay:10.37 W/m2 CLR
06:20 62.4 °F /  16.9 °C 60.3 °F /  15.7 °C 30.20in /  1022.6hPa East 1.2mph /  1.9km/h 1.2mph /  1.9km/h 93% 0.00in /  0mm WeatherDisplay:10.37 W/m2 CLR
06:25 62.3 °F /  16.8 °C 60.2 °F /  15.7 °C 30.20in /  1022.6hPa East 1.2mph /  1.9km/h 1.2mph /  1.9km/h 93% 0.00in /  0mm WeatherDisplay:10.37 W/m2 CLR
06:30 62.2 °F /  16.8 °C 60.1 °F /  15.6 °C 30.20in /  1022.6hPa East 1.2mph /  1.9km/h 1.2mph /  1.9km/h 93% 0.00in /  0mm WeatherDisplay:10.37 W/m2 CLR
06:35 62.1 °F /  16.7 °C 60.0 °F /  15.6 °C 30.21in /  1022.9hPa Calm     93% 0.00in /  0mm WeatherDisplay:10.37 W/m2 CLR
06:40 62.1 °F /  16.7 °C 60.0 °F /  15.6 °C 30.21in /  1022.9hPa Calm     93% 0.00in /  0mm WeatherDisplay:10.37 W/m2 CLR
06:45 62.0 °F /  16.7 °C 59.9 °F /  15.5 °C 30.21in /  1022.9hPa Calm     93% 0.00in /  0mm WeatherDisplay:10.37 W/m2 CLR
06:50 62.0 °F /  16.7 °C 59.9 °F /  15.5 °C 30.21in /  1022.9hPa Calm     93% 0.00in /  0mm WeatherDisplay:10.37 W/m2 CLR
06:55 62.0 °F /  16.7 °C 59.9 °F /  15.5 °C 30.21in /  1022.9hPa Calm     93% 0.00in /  0mm WeatherDisplay:10.37 W/m2 CLR
07:00 62.2 °F /  16.8 °C 60.4 °F /  15.8 °C 30.21in /  1022.9hPa Calm     94% 0.00in /  0mm WeatherDisplay:10.37 W/m2 CLR
07:05 62.5 °F /  16.9 °C 60.7 °F /  15.9 °C 30.21in /  1022.9hPa East 3.5mph /  5.6km/h 3.5mph /  5.6km/h 94% 0.00in /  0mm WeatherDisplay:10.37 W/m2 CLR
07:10 62.8 °F /  17.1 °C 61.0 °F /  16.1 °C 30.21in /  1022.9hPa East 2.3mph /  3.7km/h 2.3mph /  3.7km/h 94% 0.00in /  0mm WeatherDisplay:10.37 W/m2 CLR
07:15 63.0 °F /  17.2 °C 61.2 °F /  16.2 °C 30.22in /  1023.2hPa East 2.3mph /  3.7km/h 2.3mph /  3.7km/h 94% 0.00in /  0mm WeatherDisplay:10.37 W/m2 CLR
07:20 63.1 °F /  17.3 °C 61.0 °F /  16.1 °C 30.22in /  1023.2hPa East 1.2mph /  1.9km/h 1.2mph /  1.9km/h 93% 0.00in /  0mm WeatherDisplay:10.37 W/m2 CLR
07:25 63.3 °F /  17.4 °C 61.2 °F /  16.2 °C 30.22in /  1023.2hPa East 1.0mph /  1.6km/h 1.0mph /  1.6km/h 93% 0.00in /  0mm WeatherDisplay:10.37 W/m2 CLR
07:30 63.4 °F /  17.4 °C 61.3 °F /  16.3 °C 30.22in /  1023.2hPa East 2.3mph /  3.7km/h 2.3mph /  3.7km/h 93% 0.00in /  0mm WeatherDisplay:10.37 W/m2 CLR
07:35 63.6 °F /  17.6 °C 61.5 °F /  16.4 °C 30.22in /  1023.2hPa East 2.3mph /  3.7km/h 2.3mph /  3.7km/h 93% 0.00in /  0mm WeatherDisplay:10.37 W/m2 CLR
07:40 63.9 °F /  17.7 °C 61.8 °F /  16.6 °C 30.22in /  1023.2hPa East 2.3mph /  3.7km/h 2.3mph /  3.7km/h 93% 0.00in /  0mm WeatherDisplay:10.37 W/m2 CLR
07:45 64.2 °F /  17.9 °C 62.1 °F /  16.7 °C 30.22in /  1023.2hPa East 2.3mph /  3.7km/h 2.3mph /  3.7km/h 93% 0.00in /  0mm WeatherDisplay:10.37 W/m2 CLR
07:50 64.5 °F /  18.1 °C 62.1 °F /  16.7 °C 30.22in /  1023.2hPa East 3.5mph /  5.6km/h 3.5mph /  5.6km/h 92% 0.00in /  0mm WeatherDisplay:10.37 W/m2 CLR
07:55 64.7 °F /  18.2 °C 62.3 °F /  16.8 °C 30.22in /  1023.2hPa East 3.5mph /  5.6km/h 3.5mph /  5.6km/h 92% 0.00in /  0mm WeatherDisplay:10.37 W/m2 CLR
08:00 65.0 °F /  18.3 °C 62.6 °F /  17 °C 30.22in /  1023.2hPa East 1.2mph /  1.9km/h 1.2mph /  1.9km/h 92% 0.00in /  0mm WeatherDisplay:10.37 W/m2 CLR
08:05 65.4 °F /  18.6 °C 63.0 °F /  17.2 °C 30.23in /  1023.6hPa East 2.3mph /  3.7km/h 2.3mph /  3.7km/h 92% 0.00in /  0mm WeatherDisplay:10.37 W/m2 CLR
08:10 65.9 °F /  18.8 °C 63.5 °F /  17.5 °C 30.22in /  1023.2hPa East 2.3mph /  3.7km/h 2.3mph /  3.7km/h 92% 0.00in /  0mm WeatherDisplay:10.37 W/m2 CLR
08:15 66.3 °F /  19.1 °C 63.6 °F /  17.6 °C 30.22in /  1023.2hPa East 2.3mph /  3.7km/h 2.3mph /  3.7km/h 91% 0.00in /  0mm WeatherDisplay:10.37 W/m2 CLR
08:20 67.0 °F /  19.4 °C 64.2 °F /  17.9 °C 30.22in /  1023.2hPa East 2.3mph /  3.7km/h 2.3mph /  3.7km/h 91% 0.00in /  0mm WeatherDisplay:10.37 W/m2 CLR
08:25 67.6 °F /  19.8 °C 64.5 °F /  18.1 °C 30.22in /  1023.2hPa East 2.3mph /  3.7km/h 2.3mph /  3.7km/h 90% 0.00in /  0mm WeatherDisplay:10.37 W/m2 CLR
08:30 68.0 °F /  20 °C 64.6 °F /  18.1 °C 30.23in /  1023.6hPa East 1.2mph /  1.9km/h 1.2mph /  1.9km/h 89% 0.00in /  0mm WeatherDisplay:10.37 W/m2 CLR
08:35 68.6 °F /  20.3 °C 64.9 °F /  18.3 °C 30.23in /  1023.6hPa East 2.3mph /  3.7km/h 2.3mph /  3.7km/h 88% 0.00in /  0mm WeatherDisplay:10.37 W/m2 CLR
08:40 69.1 °F /  20.6 °C 65.0 °F /  18.3 °C 30.23in /  1023.6hPa East 1.2mph /  1.9km/h 1.2mph /  1.9km/h 87% 0.00in /  0mm WeatherDisplay:10.37 W/m2 CLR
08:45 69.6 °F /  20.9 °C 65.5 °F /  18.6 °C 30.23in /  1023.6hPa East 3.5mph /  5.6km/h 3.5mph /  5.6km/h 87% 0.00in /  0mm WeatherDisplay:10.37 W/m2 CLR
08:50 70.0 °F /  21.1 °C 65.6 °F /  18.7 °C 30.23in /  1023.6hPa East 3.5mph /  5.6km/h 3.5mph /  5.6km/h 86% 0.00in /  0mm WeatherDisplay:10.37 W/m2 CLR
08:55 70.5 °F /  21.4 °C 66.1 °F /  18.9 °C 30.23in /  1023.6hPa East 2.3mph /  3.7km/h   86% 0.00in /  0mm WeatherDisplay:10.37 W/m2 CLR
09:00 71.1 °F /  21.7 °C 66.3 °F /  19.1 °C 30.23in /  1023.6hPa East 1.2mph /  1.9km/h   85% 0.00in /  0mm WeatherDisplay:10.37 W/m2 CLR
09:05 71.8 °F /  22.1 °C 66.3 °F /  19.1 °C 30.22in /  1023.2hPa East 2.3mph /  3.7km/h 2.3mph /  3.7km/h 83% 0.00in /  0mm WeatherDisplay:10.37 W/m2 CLR
09:10 72.3 °F /  22.4 °C 66.5 °F /  19.2 °C 30.23in /  1023.6hPa West 1.2mph /  1.9km/h 1.2mph /  1.9km/h 82% 0.00in /  0mm WeatherDisplay:10.37 W/m2 CLR
09:15 72.8 °F /  22.7 °C 66.6 °F /  19.2 °C 30.23in /  1023.6hPa West 1.2mph /  1.9km/h 1.2mph /  1.9km/h 81% 0.00in /  0mm WeatherDisplay:10.37 W/m2 CLR
09:20 73.2 °F /  22.9 °C 67.0 °F /  19.4 °C 30.23in /  1023.6hPa West 2.3mph /  3.7km/h 2.3mph /  3.7km/h 81% 0.00in /  0mm WeatherDisplay:10.37 W/m2 CLR
09:25 73.7 °F /  23.2 °C 67.8 °F /  19.9 °C 30.23in /  1023.6hPa NW 3.0mph /  4.8km/h 3.0mph /  4.8km/h 82% 0.00in /  0mm WeatherDisplay:10.37 W/m2 CLR
09:30 73.9 °F /  23.3 °C 67.7 °F /  19.8 °C 30.23in /  1023.6hPa North 3.5mph /  5.6km/h 3.5mph /  5.6km/h 81% 0.00in /  0mm WeatherDisplay:10.37 W/m2 CLR
09:35 74.2 °F /  23.4 °C 67.6 °F /  19.8 °C 30.23in /  1023.6hPa North 3.5mph /  5.6km/h 3.5mph /  5.6km/h 80% 0.00in /  0mm WeatherDisplay:10.37 W/m2 CLR
09:40 74.7 °F /  23.7 °C 68.1 °F /  20.1 °C 30.23in /  1023.6hPa North 2.3mph /  3.7km/h 2.3mph /  3.7km/h 80% 0.00in /  0mm WeatherDisplay:10.37 W/m2 CLR
09:45 75.5 °F /  24.2 °C 68.1 °F /  20.1 °C 30.23in /  1023.6hPa North 3.5mph /  5.6km/h 3.5mph /  5.6km/h 78% 0.00in /  0mm WeatherDisplay:10.37 W/m2 CLR
09:50 76.3 °F /  24.6 °C 68.1 °F /  20.1 °C 30.23in /  1023.6hPa SW 3.5mph /  5.6km/h 3.5mph /  5.6km/h 76% 0.00in /  0mm WeatherDisplay:10.37 W/m2 CLR
09:55 76.6 °F /  24.8 °C 68.0 °F /  20 °C 30.23in /  1023.6hPa West 3.5mph /  5.6km/h 3.5mph /  5.6km/h 75% 0.00in /  0mm WeatherDisplay:10.37 W/m2 CLR
10:00 77.1 °F /  25.1 °C 68.5 °F /  20.3 °C 30.23in /  1023.6hPa West 2.3mph /  3.7km/h 2.3mph /  3.7km/h 75% 0.00in /  0mm WeatherDisplay:10.37 W/m2 CLR
10:05 78.1 °F /  25.6 °C 69.1 °F /  20.6 °C 30.23in /  1023.6hPa South 5.0mph /  8km/h 5.0mph /  8km/h 74% 0.00in /  0mm WeatherDisplay:10.37 W/m2 CLR
10:10 78.6 °F /  25.9 °C 68.8 °F /  20.4 °C 30.23in /  1023.6hPa SSW 2.3mph /  3.7km/h 2.3mph /  3.7km/h 72% 0.00in /  0mm WeatherDisplay:10.37 W/m2 CLR
10:15 78.7 °F /  25.9 °C 68.5 °F /  20.3 °C 30.22in /  1023.2hPa WSW 4.6mph /  7.4km/h 4.6mph /  7.4km/h 71% 0.00in /  0mm WeatherDisplay:10.37 W/m2 CLR
10:20 78.7 °F /  25.9 °C 68.9 °F /  20.5 °C 30.23in /  1023.6hPa SW 3.5mph /  5.6km/h 3.5mph /  5.6km/h 72% 0.00in /  0mm WeatherDisplay:10.37 W/m2 CLR
10:25 79.1 °F /  26.2 °C 68.8 °F /  20.4 °C 30.23in /  1023.6hPa SSW 3.5mph /  5.6km/h 3.5mph /  5.6km/h 71% 0.00in /  0mm WeatherDisplay:10.37 W/m2 CLR
10:30 79.5 °F /  26.4 °C 69.2 °F /  20.7 °C 30.22in /  1023.2hPa NW 3.5mph /  5.6km/h 3.5mph /  5.6km/h 71% 0.00in /  0mm WeatherDisplay:10.37 W/m2 CLR
10:35 79.8 °F /  26.6 °C 69.1 °F /  20.6 °C 30.22in /  1023.2hPa West 5.8mph /  9.3km/h 5.8mph /  9.3km/h 70% 0.00in /  0mm WeatherDisplay:10.37 W/m2 CLR
10:40 80.0 °F /  26.7 °C 69.3 °F /  20.7 °C 30.23in /  1023.6hPa WNW 3.5mph /  5.6km/h 3.5mph /  5.6km/h 70% 0.00in /  0mm WeatherDisplay:10.37 W/m2 CLR
10:45 80.6 °F /  27 °C 69.4 °F /  20.8 °C 30.23in /  1023.6hPa WSW 3.5mph /  5.6km/h 3.5mph /  5.6km/h 69% 0.00in /  0mm WeatherDisplay:10.37 W/m2 CLR
10:50 80.8 °F /  27.1 °C 69.2 °F /  20.7 °C 30.22in /  1023.2hPa SW 3.5mph /  5.6km/h 3.5mph /  5.6km/h 68% 0.00in /  0mm WeatherDisplay:10.37 W/m2 CLR
10:55 80.9 °F /  27.2 °C 68.9 °F /  20.5 °C 30.22in /  1023.2hPa WNW 3.5mph /  5.6km/h 3.5mph /  5.6km/h 67% 0.00in /  0mm WeatherDisplay:10.37 W/m2 CLR
11:00 81.4 °F /  27.4 °C 68.9 °F /  20.5 °C 30.22in /  1023.2hPa NNW 3.5mph /  5.6km/h 3.5mph /  5.6km/h 66% 0.00in /  0mm WeatherDisplay:10.37 W/m2 CLR
11:05 82.3 °F /  27.9 °C 69.3 °F /  20.7 °C 30.22in /  1023.2hPa WSW 4.6mph /  7.4km/h 4.6mph /  7.4km/h 65% 0.00in /  0mm WeatherDisplay:10.37 W/m2 CLR
11:10 82.3 °F /  27.9 °C 68.9 °F /  20.5 °C 30.22in /  1023.2hPa SW 2.3mph /  3.7km/h 2.3mph /  3.7km/h 64% 0.00in /  0mm WeatherDisplay:10.37 W/m2 CLR
11:15 82.6 °F /  28.1 °C 68.2 °F /  20.1 °C 30.22in /  1023.2hPa WSW 5.8mph /  9.3km/h 5.8mph /  9.3km/h 62% 0.00in /  0mm WeatherDisplay:10.37 W/m2 CLR
11:20 82.7 °F /  28.2 °C 68.3 °F /  20.2 °C 30.23in /  1023.6hPa SSW 3.5mph /  5.6km/h 3.5mph /  5.6km/h 62% 0.00in /  0mm WeatherDisplay:10.37 W/m2 CLR
11:25 82.9 °F /  28.3 °C 68.5 °F /  20.3 °C 30.22in /  1023.2hPa SW 3.5mph /  5.6km/h 3.5mph /  5.6km/h 62% 0.00in /  0mm WeatherDisplay:10.37 W/m2 CLR
11:30 82.5 °F /  28.1 °C 67.2 °F /  19.6 °C 30.23in /  1023.6hPa SW 6.9mph /  11.1km/h 6.9mph /  11.1km/h 60% 0.00in /  0mm WeatherDisplay:10.37 W/m2 CLR
11:35 82.5 °F /  28.1 °C 67.7 °F /  19.8 °C 30.22in /  1023.2hPa NNW 4.6mph /  7.4km/h 4.6mph /  7.4km/h 61% 0.00in /  0mm WeatherDisplay:10.37 W/m2 CLR
11:40 82.5 °F /  28.1 °C 68.6 °F /  20.3 °C 30.22in /  1023.2hPa West 4.6mph /  7.4km/h 4.6mph /  7.4km/h 63% 0.00in /  0mm WeatherDisplay:10.37 W/m2 CLR
11:41 82.6 °F /  28.1 °C 68.7 °F /  20.4 °C 30.22in /  1023.2hPa West 4.6mph /  7.4km/h 4.6mph /  7.4km/h 63% 0.00in /  0mm WeatherDisplay:10.37 W/m2 CLR
11:46 82.8 °F /  28.2 °C 67.9 °F /  19.9 °C 30.22in /  1023.2hPa North 5.8mph /  9.3km/h 5.8mph /  9.3km/h 61% 0.00in /  0mm WeatherDisplay:10.37 W/m2 SCT
11:51 83.5 °F /  28.6 °C 69.1 °F /  20.6 °C 30.22in /  1023.2hPa SSW 3.5mph /  5.6km/h 3.5mph /  5.6km/h 62% 0.00in /  0mm WeatherDisplay:10.37 W/m2 SCT
11:56 83.6 °F /  28.7 °C 68.7 °F /  20.4 °C 30.21in /  1022.9hPa SW 4.6mph /  7.4km/h 4.6mph /  7.4km/h 61% 0.00in /  0mm WeatherDisplay:10.37 W/m2 SCT
12:01 83.6 °F /  28.7 °C 68.2 °F /  20.1 °C 30.22in /  1023.2hPa South 8.1mph /  13km/h 8.1mph /  13km/h 60% 0.00in /  0mm WeatherDisplay:10.37 W/m2 SCT
12:06 83.8 °F /  28.8 °C 68.4 °F /  20.2 °C 30.22in /  1023.2hPa SW 4.0mph /  6.4km/h 4.0mph /  6.4km/h 60% 0.00in /  0mm WeatherDisplay:10.37 W/m2 SCT
12:11 84.0 °F /  28.9 °C 68.6 °F /  20.3 °C 30.21in /  1022.9hPa West 8.0mph /  12.9km/h 8.0mph /  12.9km/h 60% 0.00in /  0mm WeatherDisplay:10.37 W/m2 SCT
12:16 84.2 °F /  29 °C 67.3 °F /  19.6 °C 30.21in /  1022.9hPa West 4.6mph /  7.4km/h 4.6mph /  7.4km/h 57% 0.00in /  0mm WeatherDisplay:10.37 W/m2 SCT
12:21 84.6 °F /  29.2 °C 67.6 °F /  19.8 °C 30.21in /  1022.9hPa WSW 8.1mph /  13km/h 8.1mph /  13km/h 57% 0.00in /  0mm WeatherDisplay:10.37 W/m2 SCT
12:26 84.4 °F /  29.1 °C 66.4 °F /  19.1 °C 30.21in /  1022.9hPa SSE 6.9mph /  11.1km/h 6.9mph /  11.1km/h 55% 0.00in /  0mm WeatherDisplay:10.37 W/m2 CLR
12:31 84.9 °F /  29.4 °C 67.9 °F /  19.9 °C 30.21in /  1022.9hPa West 5.8mph /  9.3km/h 5.8mph /  9.3km/h 57% 0.00in /  0mm WeatherDisplay:10.37 W/m2 CLR
12:36 85.8 °F /  29.9 °C 69.3 °F /  20.7 °C 30.20in /  1022.6hPa South 5.0mph /  8km/h 5.0mph /  8km/h 58% 0.00in /  0mm WeatherDisplay:10.37 W/m2 CLR
12:41 86.3 °F /  30.2 °C 67.7 °F /  19.8 °C 30.20in /  1022.6hPa South 3.5mph /  5.6km/h 3.5mph /  5.6km/h 54% 0.00in /  0mm WeatherDisplay:10.37 W/m2 CLR
12:46 86.7 °F /  30.4 °C 68.0 °F /  20 °C 30.20in /  1022.6hPa SW 6.9mph /  11.1km/h 6.9mph /  11.1km/h 54% 0.00in /  0mm WeatherDisplay:10.37 W/m2 SCT
12:51 86.9 °F /  30.5 °C 67.7 °F /  19.8 °C 30.20in /  1022.6hPa SW 4.6mph /  7.4km/h 4.6mph /  7.4km/h 53% 0.00in /  0mm WeatherDisplay:10.37 W/m2 SCT
12:56 86.8 °F /  30.4 °C 67.6 °F /  19.8 °C 30.20in /  1022.6hPa West 3.5mph /  5.6km/h 3.5mph /  5.6km/h 53% 0.00in /  0mm WeatherDisplay:10.37 W/m2 SCT
13:01 87.1 °F /  30.6 °C 67.3 °F /  19.6 °C 30.20in /  1022.6hPa WSW 3.5mph /  5.6km/h 3.5mph /  5.6km/h 52% 0.00in /  0mm WeatherDisplay:10.37 W/m2 SCT
13:06 87.6 °F /  30.9 °C 66.6 °F /  19.2 °C 30.19in /  1022.2hPa SSW 6.9mph /  11.1km/h 6.9mph /  11.1km/h 50% 0.00in /  0mm WeatherDisplay:10.37 W/m2 CLR
13:11 87.6 °F /  30.9 °C 66.0 °F /  18.9 °C 30.20in /  1022.6hPa West 3.5mph /  5.6km/h 3.5mph /  5.6km/h 49% 0.00in /  0mm WeatherDisplay:10.37 W/m2 CLR
13:16 87.1 °F /  30.6 °C 66.7 °F /  19.3 °C 30.19in /  1022.2hPa West 4.6mph /  7.4km/h 4.6mph /  7.4km/h 51% 0.00in /  0mm WeatherDisplay:10.37 W/m2 CLR
13:21 86.5 °F /  30.3 °C 65.6 °F /  18.7 °C 30.19in /  1022.2hPa West 2.3mph /  3.7km/h 2.3mph /  3.7km/h 50% 0.00in /  0mm WeatherDisplay:10.37 W/m2 CLR
13:26 86.6 °F /  30.3 °C 67.4 °F /  19.7 °C 30.19in /  1022.2hPa SW 5.8mph /  9.3km/h 5.8mph /  9.3km/h 53% 0.00in /  0mm WeatherDisplay:10.37 W/m2 SCT
13:31 86.7 °F /  30.4 °C 66.9 °F /  19.4 °C 30.19in /  1022.2hPa WSW 7.0mph /  11.3km/h 7.0mph /  11.3km/h 52% 0.00in /  0mm WeatherDisplay:10.37 W/m2 SCT
13:36 86.8 °F /  30.4 °C 65.3 °F /  18.5 °C 30.19in /  1022.2hPa SSW 8.1mph /  13km/h 8.1mph /  13km/h 49% 0.00in /  0mm WeatherDisplay:10.37 W/m2 SCT
13:41 86.9 °F /  30.5 °C 64.2 °F /  17.9 °C 30.19in /  1022.2hPa South 5.8mph /  9.3km/h 5.8mph /  9.3km/h 47% 0.00in /  0mm WeatherDisplay:10.37 W/m2 SCT
13:46 87.0 °F /  30.6 °C 65.5 °F /  18.6 °C 30.19in /  1022.2hPa SW 6.9mph /  11.1km/h 6.9mph /  11.1km/h 49% 0.00in /  0mm WeatherDisplay:10.37 W/m2 CLR
13:51 87.8 °F /  31 °C 65.6 °F /  18.7 °C 30.19in /  1022.2hPa South 6.9mph /  11.1km/h 6.9mph /  11.1km/h 48% 0.00in /  0mm WeatherDisplay:10.37 W/m2 CLR
13:56 87.9 °F /  31.1 °C 64.5 °F /  18.1 °C 30.19in /  1022.2hPa SSE 5.0mph /  8km/h 5.0mph /  8km/h 46% 0.00in /  0mm WeatherDisplay:10.37 W/m2 CLR
14:01 88.2 °F /  31.2 °C 65.4 °F /  18.6 °C 30.19in /  1022.2hPa SE 5.8mph /  9.3km/h 5.8mph /  9.3km/h 47% 0.00in /  0mm WeatherDisplay:10.37 W/m2 CLR
14:06 88.8 °F /  31.6 °C 64.7 °F /  18.2 °C 30.18in /  1021.9hPa SW 4.0mph /  6.4km/h 4.0mph /  6.4km/h 45% 0.00in /  0mm WeatherDisplay:10.37 W/m2 SCT
14:11 88.5 °F /  31.4 °C 64.4 °F /  18 °C 30.19in /  1022.2hPa NW 3.0mph /  4.8km/h 3.0mph /  4.8km/h 45% 0.00in /  0mm WeatherDisplay:10.37 W/m2 SCT
14:16 87.8 °F /  31 °C 65.6 °F /  18.7 °C 30.19in /  1022.2hPa SSW 5.0mph /  8km/h 5.0mph /  8km/h 48% 0.00in /  0mm WeatherDisplay:10.37 W/m2 SCT
14:21 87.3 °F /  30.7 °C 65.8 °F /  18.8 °C 30.19in /  1022.2hPa North 3.5mph /  5.6km/h 3.5mph /  5.6km/h 49% 0.00in /  0mm WeatherDisplay:10.37 W/m2 SCT
14:26 87.6 °F /  30.9 °C 65.4 °F /  18.6 °C 30.19in /  1022.2hPa West 6.9mph /  11.1km/h 6.9mph /  11.1km/h 48% 0.00in /  0mm WeatherDisplay:10.37 W/m2 SCT
14:31 87.8 °F /  31 °C 65.0 °F /  18.3 °C 30.19in /  1022.2hPa SW 5.8mph /  9.3km/h 5.8mph /  9.3km/h 47% 0.00in /  0mm WeatherDisplay:10.37 W/m2 SCT
14:36 88.4 °F /  31.3 °C 65.0 °F /  18.3 °C 30.18in /  1021.9hPa SSW 4.6mph /  7.4km/h 4.6mph /  7.4km/h 46% 0.00in /  0mm WeatherDisplay:10.37 W/m2 SCT
14:41 89.0 °F /  31.7 °C 64.9 °F /  18.3 °C 30.18in /  1021.9hPa WSW 5.8mph /  9.3km/h 5.8mph /  9.3km/h 45% 0.00in /  0mm WeatherDisplay:10.37 W/m2 SCT
14:46 89.1 °F /  31.7 °C 64.3 °F /  17.9 °C 30.18in /  1021.9hPa SW 4.6mph /  7.4km/h 4.6mph /  7.4km/h 44% 0.00in /  0mm WeatherDisplay:10.37 W/m2 SCT
14:51 88.8 °F /  31.6 °C 64.7 °F /  18.2 °C 30.18in /  1021.9hPa SSW 5.8mph /  9.3km/h 5.8mph /  9.3km/h 45% 0.00in /  0mm WeatherDisplay:10.37 W/m2 SCT
14:56 88.9 °F /  31.6 °C 66.0 °F /  18.9 °C 30.18in /  1021.9hPa West 5.8mph /  9.3km/h 5.8mph /  9.3km/h 47% 0.00in /  0mm WeatherDisplay:10.37 W/m2 SCT
15:01 89.5 °F /  31.9 °C 64.7 °F /  18.2 °C 30.17in /  1021.6hPa SW 3.5mph /  5.6km/h 3.5mph /  5.6km/h 44% 0.00in /  0mm WeatherDisplay:10.37 W/m2 SCT
15:06 89.2 °F /  31.8 °C 65.0 °F /  18.3 °C 30.17in /  1021.6hPa NNE 3.5mph /  5.6km/h 3.5mph /  5.6km/h 45% 0.00in /  0mm WeatherDisplay:10.37 W/m2 SCT
15:11 89.4 °F /  31.9 °C 64.6 °F /  18.1 °C 30.17in /  1021.6hPa WSW 3.5mph /  5.6km/h 3.5mph /  5.6km/h 44% 0.00in /  0mm WeatherDisplay:10.37 W/m2 SCT
15:16 89.9 °F /  32.2 °C 63.7 °F /  17.6 °C 30.17in /  1021.6hPa SSE 3.5mph /  5.6km/h 3.5mph /  5.6km/h 42% 0.00in /  0mm WeatherDisplay:10.37 W/m2 SCT
15:21 91.0 °F /  32.8 °C 64.0 °F /  17.8 °C 30.17in /  1021.6hPa West 6.9mph /  11.1km/h 6.9mph /  11.1km/h 41% 0.00in /  0mm WeatherDisplay:10.37 W/m2 SCT
15:26 90.7 °F /  32.6 °C 64.4 °F /  18 °C 30.17in /  1021.6hPa West 4.6mph /  7.4km/h 4.6mph /  7.4km/h 42% 0.00in /  0mm WeatherDisplay:10.37 W/m2 SCT
15:31 90.2 °F /  32.3 °C 64.0 °F /  17.8 °C 30.17in /  1021.6hPa South 3.5mph /  5.6km/h 3.5mph /  5.6km/h 42% 0.00in /  0mm WeatherDisplay:10.37 W/m2 SCT
15:41 90.1 °F /  32.3 °C 63.9 °F /  17.7 °C 30.16in /  1021.2hPa SSW 2.3mph /  3.7km/h 2.3mph /  3.7km/h 42% 0.00in /  0mm WeatherDisplay:10.37 W/m2 SCT
15:46 90.5 °F /  32.5 °C 64.2 °F /  17.9 °C 30.16in /  1021.2hPa SW 6.9mph /  11.1km/h 6.9mph /  11.1km/h 42% 0.00in /  0mm WeatherDisplay:10.37 W/m2 SCT
15:51 90.3 °F /  32.4 °C 66.0 °F /  18.9 °C 30.16in /  1021.2hPa SW 5.0mph /  8km/h 5.0mph /  8km/h 45% 0.00in /  0mm WeatherDisplay:10.37 W/m2 SCT
15:56 90.1 °F /  32.3 °C 64.6 °F /  18.1 °C 30.16in /  1021.2hPa SSW 3.5mph /  5.6km/h 3.5mph /  5.6km/h 43% 0.00in /  0mm WeatherDisplay:10.37 W/m2 SCT
16:01 89.7 °F /  32.1 °C 64.9 °F /  18.3 °C 30.16in /  1021.2hPa West 4.0mph /  6.4km/h 4.0mph /  6.4km/h 44% 0.00in /  0mm WeatherDisplay:10.37 W/m2 SCT
16:06 89.2 °F /  31.8 °C 65.7 °F /  18.7 °C 30.16in /  1021.2hPa NNW 2.3mph /  3.7km/h 2.3mph /  3.7km/h 46% 0.00in /  0mm WeatherDisplay:10.37 W/m2 SCT
16:11 89.5 °F /  31.9 °C 65.3 °F /  18.5 °C 30.16in /  1021.2hPa West 6.9mph /  11.1km/h 6.9mph /  11.1km/h 45% 0.00in /  0mm WeatherDisplay:10.37 W/m2 SCT
16:16 89.7 °F /  32.1 °C 65.5 °F /  18.6 °C 30.16in /  1021.2hPa South 5.8mph /  9.3km/h 5.8mph /  9.3km/h 45% 0.00in /  0mm WeatherDisplay:10.37 W/m2 SCT
16:21 89.6 °F /  32 °C 65.4 °F /  18.6 °C 30.16in /  1021.2hPa SSW 5.8mph /  9.3km/h 5.8mph /  9.3km/h 45% 0.00in /  0mm WeatherDisplay:10.37 W/m2 CLR
16:26 89.8 °F /  32.1 °C 63.6 °F /  17.6 °C 30.16in /  1021.2hPa NW 2.3mph /  3.7km/h 2.3mph /  3.7km/h 42% 0.00in /  0mm WeatherDisplay:10.37 W/m2 CLR
16:31 90.1 °F /  32.3 °C 65.2 °F /  18.4 °C 30.16in /  1021.2hPa SSW 3.5mph /  5.6km/h 3.5mph /  5.6km/h 44% 0.00in /  0mm WeatherDisplay:10.37 W/m2 CLR
16:36 90.3 °F /  32.4 °C 64.7 °F /  18.2 °C 30.16in /  1021.2hPa South 3.5mph /  5.6km/h 3.5mph /  5.6km/h 43% 0.00in /  0mm WeatherDisplay:10.37 W/m2 CLR
16:41 90.2 °F /  32.3 °C 64.6 °F /  18.1 °C 30.16in /  1021.2hPa North 3.5mph /  5.6km/h 3.5mph /  5.6km/h 43% 0.00in /  0mm WeatherDisplay:10.37 W/m2 CLR
16:46 90.1 °F /  32.3 °C 65.2 °F /  18.4 °C 30.16in /  1021.2hPa NW 2.0mph /  3.2km/h 2.0mph /  3.2km/h 44% 0.00in /  0mm WeatherDisplay:10.37 W/m2 CLR
16:51 90.2 °F /  32.3 °C 64.6 °F /  18.1 °C 30.16in /  1021.2hPa NW 2.3mph /  3.7km/h 2.3mph /  3.7km/h 43% 0.00in /  0mm WeatherDisplay:10.37 W/m2 CLR
16:56 90.1 °F /  32.3 °C 63.2 °F /  17.3 °C 30.16in /  1021.2hPa North 5.8mph /  9.3km/h 5.8mph /  9.3km/h 41% 0.00in /  0mm WeatherDisplay:10.37 W/m2 CLR
17:01 90.4 °F /  32.4 °C 62.8 °F /  17.1 °C 30.16in /  1021.2hPa North 4.6mph /  7.4km/h 4.6mph /  7.4km/h 40% 0.00in /  0mm WeatherDisplay:10.37 W/m2 CLR
17:06 90.5 °F /  32.5 °C 63.5 °F /  17.5 °C 30.15in /  1020.9hPa WSW 5.8mph /  9.3km/h 5.8mph /  9.3km/h 41% 0.00in /  0mm WeatherDisplay:10.37 W/m2 CLR
17:11 90.5 °F /  32.5 °C 64.2 °F /  17.9 °C 30.15in /  1020.9hPa NW 3.5mph /  5.6km/h 3.5mph /  5.6km/h 42% 0.00in /  0mm WeatherDisplay:10.37 W/m2 CLR
17:16 90.2 °F /  32.3 °C 64.0 °F /  17.8 °C 30.15in /  1020.9hPa WSW 5.8mph /  9.3km/h 5.8mph /  9.3km/h 42% 0.00in /  0mm WeatherDisplay:10.37 W/m2 CLR
17:21 90.0 °F /  32.2 °C 65.1 °F /  18.4 °C 30.15in /  1020.9hPa SW 3.5mph /  5.6km/h 3.5mph /  5.6km/h 44% 0.00in /  0mm WeatherDisplay:10.37 W/m2 CLR
17:26 90.6 °F /  32.6 °C 64.3 °F /  17.9 °C 30.15in /  1020.9hPa SW 3.5mph /  5.6km/h 3.5mph /  5.6km/h 42% 0.00in /  0mm WeatherDisplay:10.37 W/m2 SCT
17:31 90.6 °F /  32.6 °C 62.2 °F /  16.8 °C 30.15in /  1020.9hPa NW 5.8mph /  9.3km/h 5.8mph /  9.3km/h 39% 0.00in /  0mm WeatherDisplay:10.37 W/m2 SCT
17:36 90.8 °F /  32.7 °C 62.4 °F /  16.9 °C 30.16in /  1021.2hPa NNW 3.5mph /  5.6km/h 3.5mph /  5.6km/h 39% 0.00in /  0mm WeatherDisplay:10.37 W/m2 SCT
17:41 90.6 °F /  32.6 °C 62.9 °F /  17.2 °C 30.16in /  1021.2hPa NNE 6.9mph /  11.1km/h 6.9mph /  11.1km/h 40% 0.00in /  0mm WeatherDisplay:10.37 W/m2 SCT
17:46 89.7 °F /  32.1 °C 63.5 °F /  17.5 °C 30.16in /  1021.2hPa NNE 4.6mph /  7.4km/h 4.6mph /  7.4km/h 42% 0.00in /  0mm WeatherDisplay:10.37 W/m2 BKN
17:51 89.2 °F /  31.8 °C 63.1 °F /  17.3 °C 30.16in /  1021.2hPa NNE 3.5mph /  5.6km/h 3.5mph /  5.6km/h 42% 0.00in /  0mm WeatherDisplay:10.37 W/m2 BKN
17:56 89.1 °F /  31.7 °C 63.7 °F /  17.6 °C 30.16in /  1021.2hPa NW 3.5mph /  5.6km/h 3.5mph /  5.6km/h 43% 0.00in /  0mm WeatherDisplay:10.37 W/m2 BKN
18:01 88.8 °F /  31.6 °C 64.0 °F /  17.8 °C 30.16in /  1021.2hPa NW 2.3mph /  3.7km/h 2.3mph /  3.7km/h 44% 0.00in /  0mm WeatherDisplay:10.37 W/m2 BKN
18:06 88.9 °F /  31.6 °C 63.5 °F /  17.5 °C 30.16in /  1021.2hPa North 3.5mph /  5.6km/h 3.5mph /  5.6km/h 43% 0.00in /  0mm WeatherDisplay:10.37 W/m2 BKN
18:11 88.9 °F /  31.6 °C 63.5 °F /  17.5 °C 30.16in /  1021.2hPa North 3.5mph /  5.6km/h 3.5mph /  5.6km/h 43% 0.00in /  0mm WeatherDisplay:10.37 W/m2 BKN
18:16 88.4 °F /  31.3 °C 63.7 °F /  17.6 °C 30.16in /  1021.2hPa North 3.5mph /  5.6km/h 3.5mph /  5.6km/h 44% 0.00in /  0mm WeatherDisplay:10.37 W/m2 BKN
18:21 88.0 °F /  31.1 °C 63.3 °F /  17.4 °C 30.16in /  1021.2hPa North 2.3mph /  3.7km/h 2.3mph /  3.7km/h 44% 0.00in /  0mm WeatherDisplay:10.37 W/m2 BKN
18:26 87.7 °F /  30.9 °C 63.0 °F /  17.2 °C 30.15in /  1020.9hPa WNW 2.3mph /  3.7km/h 2.3mph /  3.7km/h 44% 0.00in /  0mm WeatherDisplay:10.37 W/m2 SCT
18:31 87.4 °F /  30.8 °C 64.0 °F /  17.8 °C 30.15in /  1020.9hPa NNW 2.3mph /  3.7km/h 2.3mph /  3.7km/h 46% 0.00in /  0mm WeatherDisplay:10.37 W/m2 SCT
18:36 86.9 °F /  30.5 °C 64.2 °F /  17.9 °C 30.16in /  1021.2hPa NNW 2.3mph /  3.7km/h 2.3mph /  3.7km/h 47% 0.00in /  0mm WeatherDisplay:10.37 W/m2 SCT
18:41 86.6 °F /  30.3 °C 65.1 °F /  18.4 °C 30.16in /  1021.2hPa NNW 1.2mph /  1.9km/h 1.2mph /  1.9km/h 49% 0.00in /  0mm WeatherDisplay:10.37 W/m2 SCT
18:46 86.4 °F /  30.2 °C 64.9 °F /  18.3 °C 30.15in /  1020.9hPa NNW 1.2mph /  1.9km/h 1.2mph /  1.9km/h 49% 0.00in /  0mm WeatherDisplay:10.37 W/m2 CLR
18:51 86.4 °F /  30.2 °C 66.1 °F /  18.9 °C 30.15in /  1020.9hPa NNW 1.2mph /  1.9km/h 1.2mph /  1.9km/h 51% 0.00in /  0mm WeatherDisplay:10.37 W/m2 CLR
18:56 86.2 °F /  30.1 °C 65.9 °F /  18.8 °C 30.15in /  1020.9hPa NNW 2.3mph /  3.7km/h 2.3mph /  3.7km/h 51% 0.00in /  0mm WeatherDisplay:10.37 W/m2 CLR
19:01 86.1 °F /  30.1 °C 65.8 °F /  18.8 °C 30.15in /  1020.9hPa North 2.3mph /  3.7km/h 2.3mph /  3.7km/h 51% 0.00in /  0mm WeatherDisplay:10.37 W/m2 CLR
19:06 85.3 °F /  29.6 °C 66.7 °F /  19.3 °C 30.15in /  1020.9hPa NE 4.0mph /  6.4km/h 4.0mph /  6.4km/h 54% 0.00in /  0mm WeatherDisplay:10.37 W/m2 CLR
19:11 84.2 °F /  29 °C 67.3 °F /  19.6 °C 30.16in /  1021.2hPa NNE 4.6mph /  7.4km/h 4.6mph /  7.4km/h 57% 0.00in /  0mm WeatherDisplay:10.37 W/m2 CLR
19:16 83.2 °F /  28.4 °C 66.8 °F /  19.3 °C 30.16in /  1021.2hPa East 5.8mph /  9.3km/h 5.8mph /  9.3km/h 58% 0.00in /  0mm WeatherDisplay:10.37 W/m2 CLR
19:21 82.4 °F /  28 °C 67.1 °F /  19.5 °C 30.16in /  1021.2hPa NNE 3.5mph /  5.6km/h 3.5mph /  5.6km/h 60% 0.00in /  0mm WeatherDisplay:10.37 W/m2 CLR
19:26 82.0 °F /  27.8 °C 67.2 °F /  19.6 °C 30.16in /  1021.2hPa NNE 3.5mph /  5.6km/h 3.5mph /  5.6km/h 61% 0.00in /  0mm WeatherDisplay:10.37 W/m2 CLR
19:31 81.8 °F /  27.7 °C 67.0 °F /  19.4 °C 30.16in /  1021.2hPa NE 4.0mph /  6.4km/h 4.0mph /  6.4km/h 61% 0.00in /  0mm WeatherDisplay:10.37 W/m2 CLR
19:36 81.4 °F /  27.4 °C 67.1 °F /  19.5 °C 30.16in /  1021.2hPa NNE 5.8mph /  9.3km/h 5.8mph /  9.3km/h 62% 0.00in /  0mm WeatherDisplay:10.37 W/m2 CLR
19:41 81.2 °F /  27.3 °C 67.4 °F /  19.7 °C 30.16in /  1021.2hPa East 3.5mph /  5.6km/h 3.5mph /  5.6km/h 63% 0.00in /  0mm WeatherDisplay:10.37 W/m2 CLR
19:46 81.2 °F /  27.3 °C 67.4 °F /  19.7 °C 30.16in /  1021.2hPa ESE 3.5mph /  5.6km/h 3.5mph /  5.6km/h 63% 0.00in /  0mm WeatherDisplay:10.37 W/m2 CLR
19:51 81.0 °F /  27.2 °C 67.2 °F /  19.6 °C 30.17in /  1021.6hPa NNE 3.5mph /  5.6km/h 3.5mph /  5.6km/h 63% 0.00in /  0mm WeatherDisplay:10.37 W/m2 CLR
19:56 80.9 °F /  27.2 °C 67.5 °F /  19.7 °C 30.17in /  1021.6hPa NNE 3.5mph /  5.6km/h 3.5mph /  5.6km/h 64% 0.00in /  0mm WeatherDisplay:10.37 W/m2 CLR
20:01 80.9 °F /  27.2 °C 67.5 °F /  19.7 °C 30.17in /  1021.6hPa NNE 2.3mph /  3.7km/h 2.3mph /  3.7km/h 64% 0.00in /  0mm WeatherDisplay:10.37 W/m2 CLR
20:06 80.9 °F /  27.2 °C 67.1 °F /  19.5 °C 30.17in /  1021.6hPa NNE 2.3mph /  3.7km/h 2.3mph /  3.7km/h 63% 0.00in /  0mm WeatherDisplay:10.37 W/m2 CLR
20:11 80.8 °F /  27.1 °C 67.0 °F /  19.4 °C 30.17in /  1021.6hPa NNE 3.5mph /  5.6km/h 3.5mph /  5.6km/h 63% 0.00in /  0mm WeatherDisplay:10.37 W/m2 CLR
20:16 80.7 °F /  27.1 °C 66.9 °F /  19.4 °C 30.18in /  1021.9hPa East 2.3mph /  3.7km/h 2.3mph /  3.7km/h 63% 0.00in /  0mm WeatherDisplay:10.37 W/m2 CLR
20:21 80.4 °F /  26.9 °C 66.6 °F /  19.2 °C 30.18in /  1021.9hPa East 2.3mph /  3.7km/h 2.3mph /  3.7km/h 63% 0.00in /  0mm WeatherDisplay:10.37 W/m2 CLR
20:26 80.1 °F /  26.7 °C 66.3 °F /  19.1 °C 30.18in /  1021.9hPa East 2.3mph /  3.7km/h 2.3mph /  3.7km/h 63% 0.00in /  0mm WeatherDisplay:10.37 W/m2 CLR
20:31 79.8 °F /  26.6 °C 66.0 °F /  18.9 °C 30.19in /  1022.2hPa NNE 3.5mph /  5.6km/h 3.5mph /  5.6km/h 63% 0.00in /  0mm WeatherDisplay:10.37 W/m2 CLR
20:36 79.3 °F /  26.3 °C 66.0 °F /  18.9 °C 30.19in /  1022.2hPa NNE 3.5mph /  5.6km/h 3.5mph /  5.6km/h 64% 0.00in /  0mm WeatherDisplay:10.37 W/m2 CLR
20:41 78.9 °F /  26.1 °C 66.1 °F /  18.9 °C 30.19in /  1022.2hPa NE 3.5mph /  5.6km/h 3.5mph /  5.6km/h 65% 0.00in /  0mm WeatherDisplay:10.37 W/m2 CLR
20:46 78.5 °F /  25.8 °C 65.7 °F /  18.7 °C 30.19in /  1022.2hPa NE 2.3mph /  3.7km/h 2.3mph /  3.7km/h 65% 0.00in /  0mm WeatherDisplay:10.37 W/m2 CLR
20:51 78.2 °F /  25.7 °C 65.9 °F /  18.8 °C 30.19in /  1022.2hPa NE 2.3mph /  3.7km/h 2.3mph /  3.7km/h 66% 0.00in /  0mm WeatherDisplay:10.37 W/m2 CLR
20:56 77.9 °F /  25.5 °C 65.6 °F /  18.7 °C 30.20in /  1022.6hPa NE 1.2mph /  1.9km/h 1.2mph /  1.9km/h 66% 0.00in /  0mm WeatherDisplay:10.37 W/m2 CLR
21:01 77.7 °F /  25.4 °C 65.8 °F /  18.8 °C 30.20in /  1022.6hPa NE 1.2mph /  1.9km/h 1.2mph /  1.9km/h 67% 0.00in /  0mm WeatherDisplay:10.37 W/m2 CLR
21:06 77.2 °F /  25.1 °C 65.8 °F /  18.8 °C 30.20in /  1022.6hPa NE 2.3mph /  3.7km/h 2.3mph /  3.7km/h 68% 0.00in /  0mm WeatherDisplay:10.37 W/m2 BKN
21:11 76.8 °F /  24.9 °C 65.8 °F /  18.8 °C 30.20in /  1022.6hPa NE 3.0mph /  4.8km/h 3.0mph /  4.8km/h 69% 0.00in /  0mm WeatherDisplay:10.37 W/m2 BKN
21:15 76.5 °F /  24.7 °C 65.5 °F /  18.6 °C 30.20in /  1022.6hPa NE 2.0mph /  3.2km/h 2.0mph /  3.2km/h 69% 0.00in /  0mm WeatherDisplay:10.37 W/m2 BKN
21:20 76.3 °F /  24.6 °C 65.8 °F /  18.8 °C 30.20in /  1022.6hPa NE 3.5mph /  5.6km/h 3.5mph /  5.6km/h 70% 0.00in /  0mm WeatherDisplay:10.37 W/m2 BKN
21:25 76.1 °F /  24.5 °C 65.6 °F /  18.7 °C 30.20in /  1022.6hPa NE 3.0mph /  4.8km/h 3.0mph /  4.8km/h 70% 0.00in /  0mm WeatherDisplay:10.37 W/m2 BKN
21:30 75.9 °F /  24.4 °C 65.8 °F /  18.8 °C 30.22in /  1023.2hPa NE 1.2mph /  1.9km/h 1.2mph /  1.9km/h 71% 0.00in /  0mm WeatherDisplay:10.37 W/m2 BKN
21:35 75.8 °F /  24.3 °C 66.1 °F /  18.9 °C 30.22in /  1023.2hPa NE 1.2mph /  1.9km/h 1.2mph /  1.9km/h 72% 0.00in /  0mm WeatherDisplay:10.37 W/m2 BKN
21:40 75.6 °F /  24.2 °C 65.9 °F /  18.8 °C 30.22in /  1023.2hPa NE 1.2mph /  1.9km/h   72% 0.00in /  0mm WeatherDisplay:10.37 W/m2 BKN
21:45 75.4 °F /  24.1 °C 65.7 °F /  18.7 °C 30.22in /  1023.2hPa SSE 3.5mph /  5.6km/h 3.5mph /  5.6km/h 72% 0.00in /  0mm WeatherDisplay:10.37 W/m2 BKN
21:50 75.3 °F /  24.1 °C 66.0 °F /  18.9 °C 30.22in /  1023.2hPa SE 3.5mph /  5.6km/h 3.5mph /  5.6km/h 73% 0.00in /  0mm WeatherDisplay:10.37 W/m2 BKN
21:55 75.2 °F /  24 °C 65.9 °F /  18.8 °C 30.22in /  1023.2hPa SE 3.0mph /  4.8km/h 3.0mph /  4.8km/h 73% 0.00in /  0mm WeatherDisplay:10.37 W/m2 BKN
22:00 75.1 °F /  23.9 °C 66.2 °F /  19 °C 30.23in /  1023.6hPa NE 4.6mph /  7.4km/h 4.6mph /  7.4km/h 74% 0.00in /  0mm WeatherDisplay:10.37 W/m2 BKN
22:05 75.0 °F /  23.9 °C 66.1 °F /  18.9 °C 30.23in /  1023.6hPa East 3.5mph /  5.6km/h 3.5mph /  5.6km/h 74% 0.00in /  0mm WeatherDisplay:10.37 W/m2 SCT
22:10 74.9 °F /  23.8 °C 66.4 °F /  19.1 °C 30.23in /  1023.6hPa NE 3.5mph /  5.6km/h 3.5mph /  5.6km/h 75% 0.00in /  0mm WeatherDisplay:10.37 W/m2 SCT
22:15 74.8 °F /  23.8 °C 66.3 °F /  19.1 °C 30.23in /  1023.6hPa NE 3.5mph /  5.6km/h 3.5mph /  5.6km/h 75% 0.00in /  0mm WeatherDisplay:10.37 W/m2 SCT
22:20 74.7 °F /  23.7 °C 66.2 °F /  19 °C 30.23in /  1023.6hPa NE 4.0mph /  6.4km/h 4.0mph /  6.4km/h 75% 0.00in /  0mm WeatherDisplay:10.37 W/m2 SCT
22:25 74.6 °F /  23.7 °C 66.1 °F /  18.9 °C 30.23in /  1023.6hPa NE 3.5mph /  5.6km/h 3.5mph /  5.6km/h 75% 0.00in /  0mm WeatherDisplay:10.37 W/m2 SCT
22:30 74.4 °F /  23.6 °C 66.3 °F /  19.1 °C 30.23in /  1023.6hPa NE 2.3mph /  3.7km/h 2.3mph /  3.7km/h 76% 0.00in /  0mm WeatherDisplay:10.37 W/m2 SCT
22:35 74.2 °F /  23.4 °C 66.1 °F /  18.9 °C 30.23in /  1023.6hPa NE 1.0mph /  1.6km/h   76% 0.00in /  0mm WeatherDisplay:10.37 W/m2 SCT
22:40 74.1 °F /  23.4 °C 66.0 °F /  18.9 °C 30.23in /  1023.6hPa NE 1.0mph /  1.6km/h 1.0mph /  1.6km/h 76% 0.00in /  0mm WeatherDisplay:10.37 W/m2 SCT
22:45 74.0 °F /  23.3 °C 65.9 °F /  18.8 °C 30.23in /  1023.6hPa NE 1.2mph /  1.9km/h 1.2mph /  1.9km/h 76% 0.00in /  0mm WeatherDisplay:10.37 W/m2 CLR
22:50 74.0 °F /  23.3 °C 65.9 °F /  18.8 °C 30.23in /  1023.6hPa NE 1.2mph /  1.9km/h 1.2mph /  1.9km/h 76% 0.00in /  0mm WeatherDisplay:10.37 W/m2 CLR
22:55 73.9 °F /  23.3 °C 66.2 °F /  19 °C 30.23in /  1023.6hPa NE 1.2mph /  1.9km/h   77% 0.00in /  0mm WeatherDisplay:10.37 W/m2 CLR
23:00 73.8 °F /  23.2 °C 66.1 °F /  18.9 °C 30.23in /  1023.6hPa NE 1.0mph /  1.6km/h 1.0mph /  1.6km/h 77% 0.00in /  0mm WeatherDisplay:10.37 W/m2 CLR
23:05 73.6 °F /  23.1 °C 66.3 °F /  19.1 °C 30.23in /  1023.6hPa NE 4.0mph /  6.4km/h 4.0mph /  6.4km/h 78% 0.00in /  0mm WeatherDisplay:10.37 W/m2 CLR
23:10 73.4 °F /  23 °C 66.1 °F /  18.9 °C 30.23in /  1023.6hPa NE 3.5mph /  5.6km/h 3.5mph /  5.6km/h 78% 0.00in /  0mm WeatherDisplay:10.37 W/m2 CLR
23:15 73.4 °F /  23 °C 66.1 °F /  18.9 °C 30.23in /  1023.6hPa NNE 3.0mph /  4.8km/h 3.0mph /  4.8km/h 78% 0.00in /  0mm WeatherDisplay:10.37 W/m2 CLR
23:20 73.4 °F /  23 °C 66.1 °F /  18.9 °C 30.23in /  1023.6hPa NNE 8.1mph /  13km/h 8.1mph /  13km/h 78% 0.00in /  0mm WeatherDisplay:10.37 W/m2 CLR
23:25 73.3 °F /  22.9 °C 66.0 °F /  18.9 °C 30.23in /  1023.6hPa ESE 3.5mph /  5.6km/h 3.5mph /  5.6km/h 78% 0.00in /  0mm WeatherDisplay:10.37 W/m2 CLR
23:30 73.2 °F /  22.9 °C 66.3 °F /  19.1 °C 30.23in /  1023.6hPa East 5.8mph /  9.3km/h 5.8mph /  9.3km/h 79% 0.00in /  0mm WeatherDisplay:10.37 W/m2 CLR
23:35 73.2 °F /  22.9 °C 66.3 °F /  19.1 °C 30.23in /  1023.6hPa NE 3.5mph /  5.6km/h 3.5mph /  5.6km/h 79% 0.00in /  0mm WeatherDisplay:10.37 W/m2 CLR
23:40 73.1 °F /  22.8 °C 66.2 °F /  19 °C 30.23in /  1023.6hPa NE 2.3mph /  3.7km/h 2.3mph /  3.7km/h 79% 0.00in /  0mm WeatherDisplay:10.37 W/m2 CLR
23:45 73.0 °F /  22.8 °C 66.1 °F /  18.9 °C 30.23in /  1023.6hPa NE 3.5mph /  5.6km/h 3.5mph /  5.6km/h 79% 0.00in /  0mm WeatherDisplay:10.37 W/m2 CLR
23:50 72.9 °F /  22.7 °C 66.0 °F /  18.9 °C 30.23in /  1023.6hPa NE 3.5mph /  5.6km/h 3.5mph /  5.6km/h 79% 0.00in /  0mm WeatherDisplay:10.37 W/m2 CLR
23:55 72.7 °F /  22.6 °C 66.1 °F /  18.9 °C 30.23in /  1023.6hPa NNE 3.0mph /  4.8km/h 3.0mph /  4.8km/h 80% 0.00in /  0mm WeatherDisplay:10.37 W/m2 CLR
Smyth Weather
Compliments of Weather Underground - 3 mb